Time;durP1;ratioP1;P1;durP2;ratioP2;P2;SDS_P1;SDS_P2;PMS_P1;PMS_P2;Temp;Humidity;BMP_temperature;BMP_pressure;BME280_temperature;BME280_humidity;BME280_pressure;Samples;Min_cycle;Max_cycle;Signal;HPM_P1;HPM_P2
2022/04/19 00:01:13;;;;;;;3.77;2.37;;;;;;;;;;4977198;28;20444;-50
2022/04/19 00:04:04;;;;;;;2.90;1.70;;;;;;;;;;4977369;28;20178;-54
2022/04/19 00:06:31;;;;;;;2.70;2.30;;;;;;;;;;4971155;28;21087;-51
2022/04/19 00:08:57;;;;;;;2.43;1.77;;;;;;;;;;4984416;28;20437;-51
2022/04/19 00:11:24;;;;;;;2.10;1.60;;;;;;;;;;4980661;28;20457;-51
2022/04/19 00:13:56;;;;;;;3.10;2.33;;;;;;;;;;4978757;28;20477;-51
2022/04/19 00:16:25;;;;;;;2.60;2.40;;;;;;;;;;4972921;28;20549;-51
2022/04/19 00:18:57;;;;;;;5.90;2.03;;;;;;;;;;4975005;28;20994;-52
2022/04/19 00:21:25;;;;;;;3.60;2.63;;;;;;;;;;4987420;28;20193;-52
2022/04/19 00:24:10;;;;;;;2.80;1.93;;;;;;;;;;4980819;28;20436;-53
2022/04/19 00:26:46;;;;;;;4.60;2.43;;;;;;;;;;4979419;28;20457;-52
2022/04/19 00:29:12;;;;;;;3.47;2.50;;;;;;;;;;4979615;28;20435;-51
2022/04/19 00:31:38;;;;;;;2.60;1.87;;;;;;;;;;4996016;28;20584;-52
2022/04/19 00:34:28;;;;;;;2.93;1.97;;;;;;;;;;4980684;28;20652;-52
2022/04/19 00:36:55;;;;;;;4.33;2.30;;;;;;;;;;4987740;28;20512;-51
2022/04/19 00:39:24;;;;;;;2.57;2.17;;;;;;;;;;4978945;28;20998;-52
2022/04/19 00:41:55;;;;;;;2.80;2.10;;;;;;;;;;4982407;28;20516;-51
2022/04/19 00:44:36;;;;;;;2.70;2.13;;;;;;;;;;4964121;28;20441;-52
2022/04/19 00:47:02;;;;;;;4.17;1.90;;;;;;;;;;4983827;28;20441;-52
2022/04/19 00:49:28;;;;;;;4.30;2.10;;;;;;;;;;4954799;28;20442;-52
2022/04/19 00:51:56;;;;;;;1.70;1.50;;;;;;;;;;4982725;28;20445;-52
2022/04/19 00:54:30;;;;;;;3.50;2.13;;;;;;;;;;4981689;28;20499;-52
2022/04/19 00:56:56;;;;;;;3.67;1.87;;;;;;;;;;4975875;28;20469;-51
2022/04/19 00:59:22;;;;;;;3.27;2.07;;;;;;;;;;4995294;28;20437;-51
2022/04/19 01:01:50;;;;;;;3.20;2.07;;;;;;;;;;4978427;28;20835;-51
2022/04/19 01:04:46;;;;;;;2.67;2.10;;;;;;;;;;4965989;28;20531;-51
2022/04/19 01:07:29;;;;;;;2.47;1.97;;;;;;;;;;4964603;28;20484;-53
2022/04/19 01:09:55;;;;;;;6.53;1.70;;;;;;;;;;4981815;28;21408;-52
2022/04/19 01:15:17;;;;;;;1.97;1.70;;;;;;;;;;4980818;28;20586;-51
2022/04/19 01:17:43;;;;;;;2.87;1.73;;;;;;;;;;4981240;28;20429;-51
2022/04/19 01:20:09;;;;;;;9.03;2.07;;;;;;;;;;4987423;28;21067;-51
2022/04/19 01:22:36;;;;;;;2.00;1.50;;;;;;;;;;4955173;28;20439;-51
2022/04/19 01:25:01;;;;;;;2.13;1.93;;;;;;;;;;4997198;28;20449;-52
2022/04/19 01:27:31;;;;;;;3.83;1.70;;;;;;;;;;4955801;28;20433;-52
2022/04/19 01:30:00;;;;;;;4.33;2.00;;;;;;;;;;4982868;28;20445;-52
2022/04/19 01:32:30;;;;;;;5.40;1.87;;;;;;;;;;4971446;28;20540;-50
2022/04/19 01:35:15;;;;;;;2.10;1.60;;;;;;;;;;4979813;28;24919;-51
2022/04/19 01:37:47;;;;;;;5.30;1.93;;;;;;;;;;4977806;28;20527;-52
2022/04/19 01:40:17;;;;;;;2.47;1.90;;;;;;;;;;4980934;28;20928;-51
2022/04/19 01:42:45;;;;;;;2.13;1.33;;;;;;;;;;4955833;28;21332;-52
2022/04/19 01:45:11;;;;;;;3.87;1.70;;;;;;;;;;4982664;28;20796;-51
2022/04/19 01:47:41;;;;;;;2.17;1.73;;;;;;;;;;4976231;28;20898;-51
2022/04/19 01:50:11;;;;;;;2.67;1.60;;;;;;;;;;4983511;28;20522;-50
2022/04/19 01:52:38;;;;;;;3.50;2.13;;;;;;;;;;4955221;28;20437;-51
2022/04/19 01:55:07;;;;;;;2.97;1.53;;;;;;;;;;4982956;28;20463;-51
2022/04/19 01:57:34;;;;;;;2.77;2.17;;;;;;;;;;4969255;28;20436;-52
2022/04/19 02:00:00;;;;;;;2.67;1.60;;;;;;;;;;4978037;28;20464;-52
2022/04/19 02:02:30;;;;;;;2.83;1.70;;;;;;;;;;4959141;28;20433;-51
2022/04/19 02:04:57;;;;;;;1.83;1.60;;;;;;;;;;4982378;28;20452;-52
2022/04/19 02:10:11;;;;;;;1.60;1.33;;;;;;;;;;4982224;28;20472;-54
2022/04/19 02:12:38;;;;;;;2.30;1.77;;;;;;;;;;4956779;28;20945;-51
2022/04/19 02:15:05;;;;;;;3.50;1.90;;;;;;;;;;4984626;28;20441;-51
2022/04/19 02:17:31;;;;;;;5.03;2.00;;;;;;;;;;4979283;28;20442;-51
2022/04/19 02:20:00;;;;;;;1.90;1.50;;;;;;;;;;4993374;28;20433;-51
2022/04/19 02:22:27;;;;;;;2.50;2.13;;;;;;;;;;4975177;28;20440;-51
2022/04/19 02:24:53;;;;;;;3.73;1.83;;;;;;;;;;4981863;28;20461;-51
2022/04/19 02:27:19;;;;;;;5.17;2.10;;;;;;;;;;4971357;28;20548;-51
2022/04/19 02:29:45;;;;;;;2.77;1.97;;;;;;;;;;4981796;28;20437;-51
2022/04/19 02:32:28;;;;;;;2.43;1.73;;;;;;;;;;4965697;28;20873;-52
2022/04/19 02:34:55;;;;;;;3.37;2.20;;;;;;;;;;4981253;28;20449;-52
2022/04/19 02:37:21;;;;;;;2.80;1.73;;;;;;;;;;4981116;28;20438;-51
2022/04/19 02:39:47;;;;;;;2.30;1.77;;;;;;;;;;4983104;28;20433;-52
2022/04/19 02:42:40;;;;;;;1.97;1.77;;;;;;;;;;4972109;28;20824;-52
2022/04/19 02:45:12;;;;;;;1.90;1.60;;;;;;;;;;4975896;28;20452;-51
2022/04/19 02:47:39;;;;;;;2.80;1.90;;;;;;;;;;4971257;28;20465;-51
2022/04/19 02:50:05;;;;;;;2.70;1.90;;;;;;;;;;4984005;28;20481;-52
2022/04/19 02:52:31;;;;;;;3.60;1.87;;;;;;;;;;4961467;28;20449;-51
2022/04/19 02:54:58;;;;;;;2.80;1.93;;;;;;;;;;4982589;28;20951;-51
2022/04/19 02:57:24;;;;;;;1.70;1.40;;;;;;;;;;4969086;28;20446;-51
2022/04/19 02:59:51;;;;;;;2.80;2.10;;;;;;;;;;4977548;28;20659;-51
2022/04/19 03:02:33;;;;;;;3.00;2.10;;;;;;;;;;4960412;28;20456;-51
2022/04/19 03:04:59;;;;;;;2.77;2.07;;;;;;;;;;4979893;28;21131;-51
2022/04/19 03:07:25;;;;;;;2.67;1.87;;;;;;;;;;4973706;28;20436;-51
2022/04/19 03:09:51;;;;;;;3.70;2.20;;;;;;;;;;4978911;28;20429;-51
2022/04/19 03:12:17;;;;;;;3.30;1.77;;;;;;;;;;4973538;28;20477;-52
2022/04/19 03:14:43;;;;;;;4.10;2.30;;;;;;;;;;4981650;28;21142;-51
2022/04/19 03:17:41;;;;;;;2.57;2.10;;;;;;;;;;4973160;28;20245;-51
2022/04/19 03:20:12;;;;;;;5.90;2.10;;;;;;;;;;4975703;28;21142;-51
2022/04/19 03:28:11;;;;;;;2.00;1.73;;;;;;;;;;4974124;28;20989;-53
2022/04/19 03:30:37;;;;;;;2.83;1.80;;;;;;;;;;4981167;28;20429;-52
2022/04/19 03:33:03;;;;;;;2.60;1.67;;;;;;;;;;4964486;28;20499;-52
2022/04/19 03:35:29;;;;;;;6.10;2.40;;;;;;;;;;4976119;28;20847;-51
2022/04/19 03:37:56;;;;;;;1.93;1.73;;;;;;;;;;4958485;28;20463;-51
2022/04/19 03:40:22;;;;;;;2.30;1.90;;;;;;;;;;4976601;28;20452;-51
2022/04/19 03:42:48;;;;;;;4.37;2.00;;;;;;;;;;4971420;28;20515;-50
2022/04/19 03:45:14;;;;;;;2.47;2.00;;;;;;;;;;4976999;28;22139;-51
2022/04/19 03:48:00;;;;;;;2.63;1.70;;;;;;;;;;4967284;28;20443;-51
2022/04/19 03:50:27;;;;;;;12.47;2.20;;;;;;;;;;4978209;28;20465;-51
2022/04/19 03:53:09;;;;;;;2.20;1.93;;;;;;;;;;4958703;28;20445;-52
2022/04/19 03:55:36;;;;;;;3.23;1.80;;;;;;;;;;4991676;28;20559;-52
2022/04/19 03:58:03;;;;;;;2.53;2.00;;;;;;;;;;4985003;28;20441;-52
2022/04/19 04:00:29;;;;;;;3.50;2.33;;;;;;;;;;4993795;28;21300;-52
2022/04/19 04:03:06;;;;;;;2.40;1.73;;;;;;;;;;4959990;28;21887;-51
2022/04/19 04:05:35;;;;;;;3.40;2.00;;;;;;;;;;4980018;28;20456;-52
2022/04/19 04:08:11;;;;;;;2.83;2.03;;;;;;;;;;4964871;28;20998;-52
2022/04/19 04:10:39;;;;;;;4.00;2.20;;;;;;;;;;4986547;28;20452;-51
2022/04/19 04:13:09;;;;;;;3.27;2.27;;;;;;;;;;4970960;28;20456;-51
2022/04/19 04:15:36;;;;;;;2.50;2.20;;;;;;;;;;4986785;28;20488;-51
2022/04/19 04:18:18;;;;;;;3.17;2.17;;;;;;;;;;4967892;28;20784;-52
2022/04/19 04:20:44;;;;;;;4.67;4.03;;;;;;;;;;4988087;28;20453;-50
2022/04/19 04:23:11;;;;;;;2.50;1.90;;;;;;;;;;4980750;28;20433;-51
2022/04/19 04:25:37;;;;;;;3.20;2.37;;;;;;;;;;4983730;28;20437;-52
2022/04/19 04:28:10;;;;;;;3.93;2.43;;;;;;;;;;4986236;28;20437;-51
2022/04/19 04:30:42;;;;;;;5.07;2.93;;;;;;;;;;4994647;28;20462;-50
2022/04/19 04:33:18;;;;;;;4.60;2.63;;;;;;;;;;4960276;28;20488;-51
2022/04/19 04:35:46;;;;;;;4.03;2.60;;;;;;;;;;4983925;28;20500;-51
2022/04/19 04:38:12;;;;;;;9.90;2.80;;;;;;;;;;4983133;28;20438;-51
2022/04/19 04:40:40;;;;;;;4.60;2.03;;;;;;;;;;4981759;28;20464;-50
2022/04/19 04:43:12;;;;;;;7.20;3.07;;;;;;;;;;4963396;28;20537;-51
2022/04/19 04:45:41;;;;;;;4.07;2.53;;;;;;;;;;4986974;28;20534;-51
2022/04/19 04:51:20;;;;;;;4.40;2.90;;;;;;;;;;4982029;28;20575;-52
2022/04/19 04:53:46;;;;;;;5.57;2.77;;;;;;;;;;4971567;28;20477;-51
2022/04/19 04:56:12;;;;;;;5.43;2.90;;;;;;;;;;4984572;28;20504;-51
2022/04/19 04:58:38;;;;;;;2.80;2.40;;;;;;;;;;4984112;28;20441;-53
2022/04/19 05:01:04;;;;;;;4.90;2.70;;;;;;;;;;4981101;28;20444;-52
2022/04/19 05:03:30;;;;;;;3.20;2.27;;;;;;;;;;4977470;28;20508;-52
2022/04/19 05:05:57;;;;;;;4.13;2.33;;;;;;;;;;4986609;28;20492;-52
2022/04/19 05:08:23;;;;;;;2.90;2.10;;;;;;;;;;4983170;28;20452;-52
2022/04/19 05:10:49;;;;;;;10.43;3.47;;;;;;;;;;4983852;28;20536;-50
2022/04/19 05:13:15;;;;;;;3.17;2.20;;;;;;;;;;4972864;28;20595;-51
2022/04/19 05:15:41;;;;;;;8.40;3.23;;;;;;;;;;4984691;28;20477;-51
2022/04/19 05:18:07;;;;;;;3.77;2.73;;;;;;;;;;4979973;28;20428;-51
2022/04/19 05:20:33;;;;;;;3.67;2.30;;;;;;;;;;4987528;28;20437;-49
2022/04/19 05:23:12;;;;;;;3.10;2.50;;;;;;;;;;4973018;28;20457;-51
2022/04/19 05:25:39;;;;;;;4.40;3.10;;;;;;;;;;4983763;28;20449;-51
2022/04/19 05:28:14;;;;;;;5.83;2.73;;;;;;;;;;4984538;28;20444;-52
2022/04/19 05:30:49;;;;;;;3.40;2.57;;;;;;;;;;4986538;28;20329;-51
2022/04/19 05:33:27;;;;;;;6.63;2.73;;;;;;;;;;4977483;28;21877;-51
2022/04/19 05:35:53;;;;;;;3.77;3.00;;;;;;;;;;4984881;28;20933;-51
2022/04/19 05:38:24;;;;;;;3.67;2.97;;;;;;;;;;4983837;28;20986;-51
2022/04/19 05:40:51;;;;;;;6.17;3.70;;;;;;;;;;4981629;28;20434;-51
2022/04/19 05:43:18;;;;;;;6.03;3.63;;;;;;;;;;4973324;28;20425;-52
2022/04/19 05:45:46;;;;;;;3.23;2.50;;;;;;;;;;4955158;28;21404;-52
2022/04/19 05:48:12;;;;;;;3.73;2.70;;;;;;;;;;4968438;28;21006;-51
2022/04/19 05:50:38;;;;;;;4.70;2.93;;;;;;;;;;4983586;28;20430;-51
2022/04/19 05:53:40;;;;;;;7.50;3.30;;;;;;;;;;4977965;28;21082;-51
2022/04/19 05:56:23;;;;;;;5.10;3.27;;;;;;;;;;4950878;28;20481;-52
2022/04/19 05:58:49;;;;;;;5.63;2.90;;;;;;;;;;4998412;28;20526;-52
2022/04/19 06:01:15;;;;;;;6.53;3.33;;;;;;;;;;4989350;28;20445;-52
2022/04/19 06:06:26;;;;;;;6.50;3.17;;;;;;;;;;4954232;28;20547;-51
2022/04/19 06:08:53;;;;;;;4.57;3.10;;;;;;;;;;4983596;28;20529;-50
2022/04/19 06:11:19;;;;;;;3.97;2.50;;;;;;;;;;4950441;28;20462;-51
2022/04/19 06:13:45;;;;;;;6.40;2.70;;;;;;;;;;4981703;28;20441;-51
2022/04/19 06:16:11;;;;;;;4.83;2.77;;;;;;;;;;4979245;28;20491;-50
2022/04/19 06:18:37;;;;;;;4.00;3.13;;;;;;;;;;4979909;28;20435;-50
2022/04/19 06:21:06;;;;;;;3.20;2.90;;;;;;;;;;4958728;28;20549;-51
2022/04/19 06:23:33;;;;;;;6.90;3.47;;;;;;;;;;4981923;28;20433;-50
2022/04/19 06:25:59;;;;;;;4.10;3.30;;;;;;;;;;4960027;28;20458;-51
2022/04/19 06:28:25;;;;;;;4.50;2.80;;;;;;;;;;4983685;28;21915;-50
2022/04/19 06:30:51;;;;;;;4.20;2.77;;;;;;;;;;4979443;28;20452;-51
2022/04/19 06:33:17;;;;;;;9.43;3.57;;;;;;;;;;4978982;28;20430;-50
2022/04/19 06:35:43;;;;;;;4.57;3.20;;;;;;;;;;4977847;28;20268;-51
2022/04/19 06:38:09;;;;;;;4.43;3.43;;;;;;;;;;4979891;28;20461;-50
2022/04/19 06:40:35;;;;;;;6.60;3.53;;;;;;;;;;4975717;28;20488;-51
2022/04/19 06:43:02;;;;;;;5.07;3.30;;;;;;;;;;4980644;28;20481;-51
2022/04/19 06:45:28;;;;;;;5.90;2.93;;;;;;;;;;4959134;28;20543;-50
2022/04/19 06:48:01;;;;;;;4.07;3.67;;;;;;;;;;4982983;28;20564;-51
2022/04/19 06:50:27;;;;;;;3.73;2.90;;;;;;;;;;4960892;28;20453;-51
2022/04/19 06:52:53;;;;;;;5.17;3.10;;;;;;;;;;4980853;28;20536;-52
2022/04/19 06:55:20;;;;;;;5.00;3.30;;;;;;;;;;4974824;28;20485;-51
2022/04/19 06:57:49;;;;;;;4.50;2.90;;;;;;;;;;4972946;28;21526;-51
2022/04/19 07:00:15;;;;;;;4.77;3.37;;;;;;;;;;4975648;28;20429;-51
2022/04/19 07:02:42;;;;;;;4.60;3.80;;;;;;;;;;4981273;28;20437;-51
2022/04/19 07:05:08;;;;;;;3.43;3.13;;;;;;;;;;4977748;28;20461;-51
2022/04/19 07:07:34;;;;;;;4.30;3.20;;;;;;;;;;4981431;28;20443;-50
2022/04/19 07:10:00;;;;;;;6.23;3.67;;;;;;;;;;4958880;28;20555;-51
2022/04/19 07:12:26;;;;;;;4.50;3.80;;;;;;;;;;4975425;28;20550;-52
2022/04/19 07:14:52;;;;;;;4.83;3.10;;;;;;;;;;4951894;28;20190;-50
2022/04/19 07:17:18;;;;;;;5.53;3.30;;;;;;;;;;4981210;28;20476;-51
2022/04/19 07:28:00;;;;;;;5.57;3.97;;;;;;;;;;4972568;28;20451;-51
2022/04/19 07:30:26;;;;;;;7.97;5.03;;;;;;;;;;4962291;28;20458;-52
2022/04/19 07:32:52;;;;;;;6.63;3.67;;;;;;;;;;4973265;28;20464;-51
2022/04/19 07:35:18;;;;;;;4.17;3.40;;;;;;;;;;4975769;28;20705;-52
2022/04/19 07:37:44;;;;;;;5.17;4.40;;;;;;;;;;4979087;28;20483;-52
2022/04/19 07:40:12;;;;;;;7.13;3.53;;;;;;;;;;4974465;28;20902;-51
2022/04/19 07:42:38;;;;;;;5.50;3.73;;;;;;;;;;4956779;28;20471;-53
2022/04/19 07:45:04;;;;;;;6.70;3.73;;;;;;;;;;4987841;28;20441;-53
2022/04/19 07:47:32;;;;;;;4.63;3.57;;;;;;;;;;4959184;28;20471;-52
2022/04/19 07:49:58;;;;;;;5.57;3.70;;;;;;;;;;4981454;28;20437;-52
2022/04/19 07:52:24;;;;;;;7.57;4.17;;;;;;;;;;4958485;28;20441;-52
2022/04/19 07:54:50;;;;;;;5.23;3.70;;;;;;;;;;4978330;28;20434;-52
2022/04/19 07:57:20;;;;;;;5.20;3.97;;;;;;;;;;4955274;28;20782;-52
2022/04/19 07:59:46;;;;;;;8.33;4.40;;;;;;;;;;4978034;28;20519;-50
2022/04/19 08:02:13;;;;;;;4.90;3.90;;;;;;;;;;4946054;28;20433;-52
2022/04/19 08:04:39;;;;;;;4.10;3.30;;;;;;;;;;4979927;28;21015;-52
2022/04/19 08:07:06;;;;;;;6.33;3.73;;;;;;;;;;4955908;28;20456;-50
2022/04/19 08:09:32;;;;;;;4.97;3.23;;;;;;;;;;4987566;28;20488;-52
2022/04/19 08:11:58;;;;;;;5.03;3.80;;;;;;;;;;4983938;28;20476;-51
2022/04/19 08:14:24;;;;;;;4.53;2.97;;;;;;;;;;4987034;28;20467;-51
2022/04/19 08:16:50;;;;;;;10.23;4.10;;;;;;;;;;4955986;28;20477;-51
2022/04/19 08:19:16;;;;;;;3.87;3.17;;;;;;;;;;4984444;28;20849;-53
2022/04/19 08:21:42;;;;;;;12.00;3.40;;;;;;;;;;4981578;28;20444;-52
2022/04/19 08:24:09;;;;;;;5.10;3.27;;;;;;;;;;4983529;28;20433;-51
2022/04/19 08:26:35;;;;;;;6.03;2.43;;;;;;;;;;4957379;28;20511;-52
2022/04/19 08:29:01;;;;;;;4.20;3.17;;;;;;;;;;4979977;28;20966;-53
2022/04/19 08:31:27;;;;;;;4.73;2.60;;;;;;;;;;4964303;28;20477;-52
2022/04/19 08:33:53;;;;;;;5.00;2.70;;;;;;;;;;4963478;28;20545;-51
2022/04/19 08:36:19;;;;;;;6.47;3.40;;;;;;;;;;4978007;28;20518;-51
2022/04/19 08:38:47;;;;;;;7.60;2.60;;;;;;;;;;4953401;28;21454;-49
2022/04/19 08:41:22;;;;;;;5.00;3.30;;;;;;;;;;4981581;28;20464;-51
2022/04/19 08:43:52;;;;;;;8.43;2.40;;;;;;;;;;4955544;28;20694;-51
2022/04/19 08:46:18;;;;;;;4.87;2.77;;;;;;;;;;4984780;28;20476;-51
2022/04/19 08:48:44;;;;;;;4.97;2.93;;;;;;;;;;4964503;28;20441;-51
2022/04/19 08:51:11;;;;;;;4.93;3.20;;;;;;;;;;4980193;28;20535;-51
2022/04/19 08:59:08;;;;;;;7.97;3.50;;;;;;;;;;4959363;28;20480;-52
2022/04/19 09:01:39;;;;;;;12.23;3.53;;;;;;;;;;4983991;28;20659;-52
2022/04/19 09:04:14;;;;;;;7.53;3.10;;;;;;;;;;4940959;28;20484;-51
2022/04/19 09:06:54;;;;;;;6.77;3.80;;;;;;;;;;4978725;28;20491;-52
2022/04/19 09:09:23;;;;;;;4.40;3.00;;;;;;;;;;4962386;28;20600;-51
2022/04/19 09:11:53;;;;;;;5.03;3.37;;;;;;;;;;4976923;28;20437;-52
2022/04/19 09:14:25;;;;;;;4.97;3.10;;;;;;;;;;4967526;28;20445;-53
2022/04/19 09:17:02;;;;;;;5.03;3.50;;;;;;;;;;4993789;28;20480;-51
2022/04/19 09:19:29;;;;;;;4.77;3.77;;;;;;;;;;4966890;28;20657;-52
2022/04/19 09:21:55;;;;;;;6.20;4.03;;;;;;;;;;4978589;28;20440;-51
2022/04/19 09:24:22;;;;;;;6.80;3.83;;;;;;;;;;4968478;28;20532;-52
2022/04/19 09:26:49;;;;;;;5.83;3.70;;;;;;;;;;4980061;28;20445;-53
2022/04/19 09:29:21;;;;;;;4.40;2.97;;;;;;;;;;4966216;28;21221;-51
2022/04/19 09:32:02;;;;;;;3.87;2.80;;;;;;;;;;4961287;28;21295;-51
2022/04/19 09:34:29;;;;;;;5.30;3.07;;;;;;;;;;4969459;28;20468;-54
2022/04/19 09:37:10;;;;;;;3.90;2.80;;;;;;;;;;4952819;28;24128;-52
2022/04/19 09:39:40;;;;;;;3.83;2.80;;;;;;;;;;4956152;28;20463;-53
2022/04/19 09:42:07;;;;;;;4.30;2.80;;;;;;;;;;4959530;28;20437;-52
2022/04/19 09:44:41;;;;;;;3.63;2.73;;;;;;;;;;4971140;28;20433;-52
2022/04/19 09:47:08;;;;;;;7.67;2.50;;;;;;;;;;4975618;28;21708;-52
2022/04/19 09:50:05;;;;;;;6.03;2.37;;;;;;;;;;4967037;28;20438;-52
2022/04/19 09:52:33;;;;;;;5.13;2.60;;;;;;;;;;4974594;28;20434;-51
2022/04/19 09:55:09;;;;;;;4.57;3.10;;;;;;;;;;4966798;28;21195;-51
2022/04/19 09:58:02;;;;;;;3.73;3.17;;;;;;;;;;4970410;28;20878;-52
2022/04/19 10:00:45;;;;;;;4.80;2.73;;;;;;;;;;4976743;28;20456;-51
2022/04/19 10:09:23;;;;;;;5.90;3.50;;;;;;;;;;4960302;28;20492;-52
2022/04/19 10:11:52;;;;;;;3.33;2.40;;;;;;;;;;4964528;28;20531;-53
2022/04/19 10:14:21;;;;;;;4.17;2.20;;;;;;;;;;4972640;28;20441;-52
2022/04/19 10:16:48;;;;;;;4.23;3.30;;;;;;;;;;4977763;28;21001;-52
2022/04/19 10:19:28;;;;;;;4.20;2.90;;;;;;;;;;4968820;28;20441;-51
2022/04/19 10:21:58;;;;;;;3.57;2.30;;;;;;;;;;4972391;28;20623;-51
2022/04/19 10:24:25;;;;;;;3.47;2.37;;;;;;;;;;4965451;28;20493;-52
2022/04/19 10:26:51;;;;;;;3.70;2.97;;;;;;;;;;4975382;28;20441;-52
2022/04/19 10:29:18;;;;;;;5.73;3.07;;;;;;;;;;4956397;28;20799;-50
2022/04/19 10:31:55;;;;;;;3.80;2.50;;;;;;;;;;4973425;28;20470;-54
2022/04/19 10:34:25;;;;;;;3.83;3.00;;;;;;;;;;4970013;28;20429;-52
2022/04/19 10:36:54;;;;;;;3.80;2.70;;;;;;;;;;4971797;28;20488;-52
2022/04/19 10:39:27;;;;;;;4.10;2.80;;;;;;;;;;4959434;28;20453;-56
2022/04/19 10:41:56;;;;;;;4.87;2.93;;;;;;;;;;4974085;28;20445;-54
2022/04/19 10:44:52;;;;;;;5.70;2.53;;;;;;;;;;4967036;28;20441;-53
2022/04/19 10:47:20;;;;;;;4.70;2.97;;;;;;;;;;4968113;28;20440;-52
2022/04/19 10:49:47;;;;;;;6.07;3.10;;;;;;;;;;4967250;28;21269;-52
2022/04/19 10:52:33;;;;;;;5.20;3.20;;;;;;;;;;4975444;28;20433;-52
2022/04/19 10:55:02;;;;;;;4.80;3.30;;;;;;;;;;4958076;28;20529;-54
2022/04/19 11:00:27;;;;;;;5.57;3.30;;;;;;;;;;4960728;28;20568;-53
2022/04/19 11:03:00;;;;;;;5.70;3.30;;;;;;;;;;4956501;28;20440;-52
2022/04/19 11:05:42;;;;;;;3.03;2.40;;;;;;;;;;4950355;28;20480;-52
2022/04/19 11:08:44;;;;;;;3.60;2.20;;;;;;;;;;4964892;28;21117;-52
2022/04/19 11:11:21;;;;;;;4.67;2.90;;;;;;;;;;4933208;28;22008;-53
2022/04/19 11:14:05;;;;;;;6.17;3.07;;;;;;;;;;4956929;28;20457;-52
2022/04/19 11:16:37;;;;;;;6.77;3.30;;;;;;;;;;4958170;28;20496;-53
2022/04/19 11:19:29;;;;;;;6.60;3.10;;;;;;;;;;4948840;28;20469;-52
2022/04/19 11:21:56;;;;;;;4.97;3.13;;;;;;;;;;4955876;28;20470;-52
2022/04/19 11:24:42;;;;;;;4.90;3.50;;;;;;;;;;4955501;28;20467;-52
2022/04/19 11:27:08;;;;;;;5.10;3.70;;;;;;;;;;4961248;28;20444;-52
2022/04/19 11:29:47;;;;;;;4.80;3.27;;;;;;;;;;4957793;28;20520;-52
2022/04/19 11:32:13;;;;;;;3.93;2.80;;;;;;;;;;4975033;28;20483;-52
2022/04/19 11:34:39;;;;;;;3.97;2.97;;;;;;;;;;4961020;28;20454;-52
2022/04/19 11:37:05;;;;;;;5.43;4.03;;;;;;;;;;4972407;28;20863;-50
2022/04/19 11:47:58;;;;;;;5.70;3.80;;;;;;;;;;4965007;28;20501;-52
2022/04/19 11:50:31;;;;;;;5.50;3.80;;;;;;;;;;4974157;28;20439;-52
2022/04/19 11:53:03;;;;;;;5.07;3.67;;;;;;;;;;4967175;28;20440;-53
2022/04/19 11:55:29;;;;;;;4.83;3.63;;;;;;;;;;4978825;28;20433;-53
2022/04/19 11:58:05;;;;;;;5.87;3.83;;;;;;;;;;4962244;28;20543;-57
2022/04/19 12:00:32;;;;;;;5.00;4.37;;;;;;;;;;4939134;28;20464;-52
2022/04/19 12:02:59;;;;;;;5.03;4.13;;;;;;;;;;4990332;28;20551;-53
2022/04/19 12:05:27;;;;;;;4.90;3.40;;;;;;;;;;4960563;28;21895;-53
2022/04/19 12:07:55;;;;;;;5.00;3.50;;;;;;;;;;4968308;28;20844;-50
2022/04/19 12:10:21;;;;;;;4.80;2.80;;;;;;;;;;4936623;28;20826;-52
2022/04/19 12:12:47;;;;;;;3.70;2.93;;;;;;;;;;4970776;28;20448;-51
2022/04/19 12:15:13;;;;;;;8.00;3.87;;;;;;;;;;4953603;28;20450;-53
2022/04/19 12:17:46;;;;;;;6.03;3.93;;;;;;;;;;4975860;28;20475;-52
2022/04/19 12:20:12;;;;;;;5.80;4.37;;;;;;;;;;4952407;28;21470;-52
2022/04/19 12:22:38;;;;;;;5.47;4.87;;;;;;;;;;4969738;28;20448;-52
2022/04/19 12:25:25;;;;;;;4.60;3.60;;;;;;;;;;4964638;28;21445;-54
2022/04/19 12:27:53;;;;;;;6.67;4.47;;;;;;;;;;4977063;28;21009;-53
2022/04/19 12:30:20;;;;;;;4.60;3.60;;;;;;;;;;4959517;28;20472;-51
2022/04/19 12:32:56;;;;;;;6.10;4.13;;;;;;;;;;4979602;28;20519;-52
2022/04/19 12:35:23;;;;;;;4.60;3.40;;;;;;;;;;4975100;28;20466;-51
2022/04/19 12:38:16;;;;;;;3.97;3.30;;;;;;;;;;4978930;28;20441;-52
2022/04/19 12:40:43;;;;;;;4.43;3.67;;;;;;;;;;4962382;28;20531;-51
2022/04/19 12:43:10;;;;;;;4.37;3.40;;;;;;;;;;4975269;28;20505;-52
2022/04/19 12:45:37;;;;;;;10.17;3.87;;;;;;;;;;4950090;28;20494;-51
2022/04/19 12:48:03;;;;;;;5.63;3.93;;;;;;;;;;4958591;28;20449;-52
2022/04/19 12:50:29;;;;;;;4.93;3.13;;;;;;;;;;4982818;28;20448;-52
2022/04/19 12:52:55;;;;;;;5.73;3.70;;;;;;;;;;4969580;28;20506;-50
2022/04/19 12:55:31;;;;;;;3.77;2.80;;;;;;;;;;4983642;28;20595;-51
2022/04/19 12:58:07;;;;;;;5.77;3.30;;;;;;;;;;4954042;28;21049;-52
2022/04/19 13:00:49;;;;;;;4.63;3.13;;;;;;;;;;4967289;28;20911;-52
2022/04/19 13:03:16;;;;;;;4.53;3.97;;;;;;;;;;4979444;28;20445;-52
2022/04/19 13:14:02;;;;;;;4.90;3.33;;;;;;;;;;4983914;28;20454;-52
2022/04/19 13:16:28;;;;;;;5.37;3.57;;;;;;;;;;4974876;28;21201;-52
2022/04/19 13:18:54;;;;;;;5.17;3.10;;;;;;;;;;4983774;28;21056;-52
2022/04/19 13:21:27;;;;;;;6.10;4.10;;;;;;;;;;4952117;28;20592;-52
2022/04/19 13:23:56;;;;;;;5.30;4.00;;;;;;;;;;4978385;28;20437;-52
2022/04/19 13:26:44;;;;;;;5.67;4.10;;;;;;;;;;4977799;28;20440;-52
2022/04/19 13:29:15;;;;;;;5.10;3.33;;;;;;;;;;4977886;28;20973;-52
2022/04/19 13:31:41;;;;;;;5.60;3.90;;;;;;;;;;4964824;28;20796;-54
2022/04/19 13:34:08;;;;;;;5.60;3.83;;;;;;;;;;4972407;28;20471;-52
2022/04/19 13:36:34;;;;;;;4.87;3.90;;;;;;;;;;4972179;28;20485;-52
2022/04/19 13:39:00;;;;;;;5.80;3.90;;;;;;;;;;4979463;28;20940;-52
2022/04/19 13:41:26;;;;;;;5.20;4.00;;;;;;;;;;4988852;28;20464;-52
2022/04/19 13:43:59;;;;;;;4.67;3.73;;;;;;;;;;4977479;28;20524;-52
2022/04/19 13:46:25;;;;;;;6.30;4.10;;;;;;;;;;4980677;28;20452;-52
2022/04/19 13:48:51;;;;;;;7.10;3.50;;;;;;;;;;4972811;28;20557;-52
2022/04/19 13:51:17;;;;;;;7.73;3.77;;;;;;;;;;4966489;28;20467;-53
2022/04/19 13:53:43;;;;;;;7.30;4.70;;;;;;;;;;4987978;28;20437;-50
2022/04/19 13:56:09;;;;;;;4.90;4.10;;;;;;;;;;4975417;28;20543;-50
2022/04/19 13:58:35;;;;;;;5.10;4.13;;;;;;;;;;4976369;28;20209;-50
2022/04/19 14:01:02;;;;;;;4.30;3.87;;;;;;;;;;4964614;28;20813;-52
2022/04/19 14:03:28;;;;;;;5.13;3.83;;;;;;;;;;4990752;28;20438;-56
2022/04/19 14:05:55;;;;;;;4.33;3.40;;;;;;;;;;4958115;28;20480;-51
2022/04/19 14:08:21;;;;;;;4.67;4.13;;;;;;;;;;4971711;28;20444;-52
2022/04/19 14:10:47;;;;;;;4.17;3.73;;;;;;;;;;4969800;28;20457;-52
2022/04/19 14:13:13;;;;;;;6.67;4.43;;;;;;;;;;4974013;28;20535;-53
2022/04/19 14:15:40;;;;;;;6.90;3.70;;;;;;;;;;4971042;28;20432;-50
2022/04/19 14:18:06;;;;;;;5.43;4.90;;;;;;;;;;4976009;28;20567;-53
2022/04/19 14:20:33;;;;;;;14.30;4.50;;;;;;;;;;4959812;28;20663;-54
2022/04/19 14:22:58;;;;;;;4.70;4.20;;;;;;;;;;4974475;28;20460;-52
2022/04/19 14:25:26;;;;;;;6.40;4.00;;;;;;;;;;4966801;28;20434;-52
2022/04/19 14:27:53;;;;;;;3.87;3.47;;;;;;;;;;4980410;28;20185;-50
2022/04/19 14:33:18;;;;;;;5.47;4.63;;;;;;;;;;4979528;28;20482;-52
2022/04/19 14:36:02;;;;;;;4.47;4.07;;;;;;;;;;4960665;28;20579;-52
2022/04/19 14:38:32;;;;;;;5.07;3.53;;;;;;;;;;4964755;28;21005;-52
2022/04/19 14:41:19;;;;;;;4.80;3.70;;;;;;;;;;4973567;28;20740;-53
2022/04/19 14:43:46;;;;;;;6.07;4.33;;;;;;;;;;4980231;28;20549;-50
2022/04/19 14:46:13;;;;;;;5.90;3.80;;;;;;;;;;4969362;28;20429;-52
2022/04/19 14:48:39;;;;;;;4.40;3.97;;;;;;;;;;4970326;28;20465;-51
2022/04/19 14:54:04;;;;;;;4.90;4.07;;;;;;;;;;4977820;28;20502;-52
2022/04/19 14:56:41;;;;;;;5.33;4.50;;;;;;;;;;4977141;28;20519;-51
2022/04/19 14:59:13;;;;;;;4.40;3.10;;;;;;;;;;4977776;28;20448;-52
2022/04/19 15:01:40;;;;;;;7.33;4.13;;;;;;;;;;4973166;28;20457;-51
2022/04/19 15:04:06;;;;;;;4.00;3.33;;;;;;;;;;4970373;28;20436;-51
2022/04/19 15:09:36;;;;;;;4.43;3.87;;;;;;;;;;4956507;28;20544;-51
2022/04/19 15:12:02;;;;;;;5.80;5.10;;;;;;;;;;4967426;28;20515;-53
2022/04/19 15:14:31;;;;;;;4.97;3.43;;;;;;;;;;4972149;28;22344;-52
2022/04/19 15:16:58;;;;;;;4.27;2.97;;;;;;;;;;4964603;28;20473;-55
2022/04/19 15:19:25;;;;;;;7.50;4.40;;;;;;;;;;4949465;28;20481;-52
2022/04/19 15:21:51;;;;;;;7.20;4.20;;;;;;;;;;4965022;28;20950;-52
2022/04/19 15:24:18;;;;;;;3.53;2.70;;;;;;;;;;4944502;28;20441;-51
2022/04/19 15:26:47;;;;;;;3.30;2.77;;;;;;;;;;4967859;28;20483;-51
2022/04/19 15:29:13;;;;;;;3.67;3.10;;;;;;;;;;4945132;28;20445;-51
2022/04/19 15:31:48;;;;;;;5.13;3.00;;;;;;;;;;4956460;28;20504;-52
2022/04/19 15:34:16;;;;;;;6.27;3.97;;;;;;;;;;4991192;28;20445;-51
2022/04/19 15:36:42;;;;;;;4.93;3.07;;;;;;;;;;4976138;28;20475;-50
2022/04/19 15:39:09;;;;;;;6.10;3.83;;;;;;;;;;4975105;28;20430;-52
2022/04/19 15:42:02;;;;;;;5.90;3.80;;;;;;;;;;4971875;28;21103;-52
2022/04/19 15:44:32;;;;;;;6.73;3.80;;;;;;;;;;4969979;28;20470;-52
2022/04/19 15:46:58;;;;;;;6.13;3.33;;;;;;;;;;4964622;28;21073;-52
2022/04/19 15:49:24;;;;;;;4.00;3.00;;;;;;;;;;4964056;28;20448;-52
2022/04/19 15:51:51;;;;;;;4.03;2.50;;;;;;;;;;4962045;28;20428;-50
2022/04/19 15:54:17;;;;;;;3.77;2.97;;;;;;;;;;4976002;28;20537;-51
2022/04/19 15:56:43;;;;;;;3.80;2.77;;;;;;;;;;4944659;28;20560;-53
2022/04/19 15:59:09;;;;;;;4.57;3.10;;;;;;;;;;4970600;28;20432;-52
2022/04/19 16:01:47;;;;;;;5.37;2.43;;;;;;;;;;4964148;28;20484;-53
2022/04/19 16:04:13;;;;;;;4.67;3.10;;;;;;;;;;4975024;28;20512;-52